createdAt,value
2022-11-16T00:01:08.128Z,1.33
2022-11-16T00:03:55.890Z,1.33
2022-11-16T00:06:53.958Z,1.55
2022-11-16T00:09:41.215Z,1.10
2022-11-16T00:12:26.581Z,2.15
2022-11-16T00:15:12.184Z,0.80
2022-11-16T00:17:57.974Z,0.70
2022-11-16T00:20:52.028Z,0.93
2022-11-16T00:23:38.986Z,1.42
2022-11-16T00:26:25.029Z,0.85
2022-11-16T00:29:49.272Z,0.88
2022-11-16T00:32:34.870Z,1.70
2022-11-16T00:35:23.639Z,0.93
2022-11-16T00:41:27.904Z,1.35
2022-11-16T00:44:23.991Z,0.77
2022-11-16T00:47:09.860Z,0.70
2022-11-16T00:49:55.465Z,0.85
2022-11-16T00:52:40.999Z,0.80
2022-11-16T00:55:26.652Z,0.82
2022-11-16T00:58:13.227Z,0.40
2022-11-16T01:01:07.561Z,0.88
2022-11-16T01:03:53.408Z,0.47
2022-11-16T01:06:39.204Z,0.43
2022-11-16T01:09:25.598Z,0.50
2022-11-16T01:12:31.171Z,0.35
2022-11-16T01:15:18.914Z,0.28
2022-11-16T01:18:04.613Z,0.20
2022-11-16T01:20:51.209Z,0.43
2022-11-16T01:23:36.681Z,0.57
2022-11-16T01:26:22.057Z,0.40
2022-11-16T01:29:07.648Z,0.50
2022-11-16T01:31:52.785Z,0.50
2022-11-16T01:34:38.262Z,0.90
2022-11-16T01:37:23.941Z,1.35
2022-11-16T01:40:10.508Z,0.93
2022-11-16T01:42:55.956Z,0.90
2022-11-16T01:45:42.502Z,0.85
2022-11-16T01:48:30.490Z,0.90
2022-11-16T01:51:16.585Z,1.00
2022-11-16T01:54:05.842Z,0.73
2022-11-16T01:56:52.991Z,0.82
2022-11-16T01:59:39.190Z,1.00
2022-11-16T02:02:24.866Z,0.98
2022-11-16T02:05:12.966Z,1.05
2022-11-16T02:08:57.872Z,0.88
2022-11-16T02:11:54.652Z,0.80
2022-11-16T02:14:55.966Z,1.02
2022-11-16T02:17:46.573Z,0.88
2022-11-16T02:20:58.695Z,1.25
2022-11-16T02:24:02.915Z,2.38
2022-11-16T02:27:23.158Z,2.10
2022-11-16T02:30:09.120Z,1.63
2022-11-16T02:33:12.024Z,1.33
2022-11-16T02:36:01.299Z,1.00
2022-11-16T02:38:53.140Z,1.00
2022-11-16T02:41:42.585Z,1.20
2022-11-16T02:44:37.240Z,1.05
2022-11-16T02:47:28.792Z,1.25
2022-11-16T02:50:21.294Z,1.52
2022-11-16T02:53:06.594Z,0.90
2022-11-16T02:55:52.433Z,1.67
2022-11-16T02:58:38.301Z,1.02
2022-11-16T03:01:43.036Z,0.93
2022-11-16T03:04:58.886Z,1.25
2022-11-16T03:07:59.678Z,1.88
2022-11-16T03:11:09.823Z,1.08
2022-11-16T03:14:03.484Z,1.15
2022-11-16T03:19:51.826Z,1.52
2022-11-16T03:22:49.059Z,0.77
2022-11-16T03:25:40.046Z,1.25
2022-11-16T03:28:35.656Z,0.70
2022-11-16T03:31:31.295Z,0.98
2022-11-16T03:34:19.816Z,0.88
2022-11-16T03:37:06.446Z,1.13
2022-11-16T03:39:54.019Z,1.92
2022-11-16T03:42:40.535Z,1.00
2022-11-16T03:45:26.228Z,0.90
2022-11-16T03:48:12.830Z,0.95
2022-11-16T03:50:58.394Z,1.20
2022-11-16T03:53:43.814Z,0.95
2022-11-16T03:56:29.391Z,1.13
2022-11-16T03:59:14.562Z,1.10
2022-11-16T04:02:00.154Z,0.80
2022-11-16T04:05:04.071Z,1.10
2022-11-16T04:08:08.179Z,1.15
2022-11-16T04:11:12.078Z,0.65
2022-11-16T04:14:15.974Z,0.77
2022-11-16T04:20:24.332Z,0.57
2022-11-16T04:23:32.697Z,0.40
2022-11-16T04:26:18.286Z,0.40
2022-11-16T04:29:04.010Z,0.68
2022-11-16T04:32:08.408Z,1.17
2022-11-16T04:35:12.713Z,0.50
2022-11-16T04:37:59.652Z,0.55
2022-11-16T04:40:44.987Z,0.45
2022-11-16T04:43:30.513Z,0.55
2022-11-16T04:46:34.622Z,0.50
2022-11-16T04:49:19.997Z,0.60
2022-11-16T04:52:05.486Z,1.00
2022-11-16T04:54:50.962Z,0.52
2022-11-16T04:57:36.644Z,0.55
2022-11-16T05:00:22.068Z,0.63
2022-11-16T05:03:07.556Z,0.80
2022-11-16T05:05:52.985Z,0.75
2022-11-16T05:08:38.613Z,0.25
2022-11-16T05:11:24.090Z,0.55
2022-11-16T05:14:10.505Z,1.13
2022-11-16T05:16:56.036Z,1.05
2022-11-16T05:20:00.481Z,0.75
2022-11-16T05:22:51.933Z,1.95
2022-11-16T05:25:37.623Z,0.55
2022-11-16T05:28:22.980Z,0.40
2022-11-16T05:31:08.147Z,0.63
2022-11-16T05:33:53.631Z,0.80
2022-11-16T05:36:39.260Z,0.93
2022-11-16T05:39:24.989Z,0.75
2022-11-16T05:42:10.730Z,0.88
2022-11-16T05:44:56.361Z,0.80
2022-11-16T05:47:41.749Z,0.70
2022-11-16T05:50:27.580Z,0.60
2022-11-16T05:53:12.742Z,0.65
2022-11-16T05:55:58.283Z,0.68
2022-11-16T05:58:44.495Z,0.60
2022-11-16T06:01:29.892Z,0.75
2022-11-16T06:04:15.692Z,0.93
2022-11-16T06:07:01.191Z,1.30
2022-11-16T06:09:46.730Z,0.60
2022-11-16T06:12:32.121Z,0.75
2022-11-16T06:15:17.571Z,1.30
2022-11-16T06:18:03.071Z,0.90
2022-11-16T06:20:48.876Z,2.30
2022-11-16T06:23:35.372Z,1.20
2022-11-16T06:26:20.767Z,1.08
2022-11-16T06:29:06.381Z,1.58
2022-11-16T06:31:51.795Z,1.30
2022-11-16T06:34:37.299Z,1.13
2022-11-16T06:37:22.781Z,1.42
2022-11-16T06:40:09.302Z,2.15
2022-11-16T06:42:57.169Z,0.90
2022-11-16T06:45:42.970Z,1.02
2022-11-16T06:48:28.518Z,1.25
2022-11-16T06:51:14.134Z,0.98
2022-11-16T06:53:59.521Z,1.30
2022-11-16T06:56:45.082Z,1.13
2022-11-16T06:59:30.981Z,1.08
2022-11-16T07:02:16.700Z,1.13
2022-11-16T07:05:03.949Z,1.15
2022-11-16T07:07:55.075Z,1.13
2022-11-16T07:10:40.643Z,1.40
2022-11-16T07:13:26.259Z,1.50
2022-11-16T07:16:12.213Z,1.20
2022-11-16T07:18:59.266Z,1.00
2022-11-16T07:21:44.901Z,1.15
2022-11-16T07:24:30.393Z,1.55
2022-11-16T07:27:15.769Z,1.50
2022-11-16T07:30:02.278Z,1.17
2022-11-16T07:32:48.029Z,0.93
2022-11-16T07:35:33.646Z,1.25
2022-11-16T07:38:19.048Z,1.35
2022-11-16T07:41:10.823Z,1.05
2022-11-16T07:43:56.940Z,1.52
2022-11-16T07:46:48.229Z,1.40
2022-11-16T07:49:34.291Z,1.27
2022-11-16T07:52:19.819Z,1.13
2022-11-16T07:55:05.970Z,1.58
2022-11-16T07:57:53.449Z,1.33
2022-11-16T08:00:39.135Z,1.42
2022-11-16T08:03:24.990Z,1.20
2022-11-16T08:06:20.362Z,1.33
2022-11-16T08:09:05.905Z,1.00
2022-11-16T08:11:51.724Z,1.85
2022-11-16T08:14:37.200Z,1.00
2022-11-16T08:17:22.478Z,1.33
2022-11-16T08:20:09.643Z,0.75
2022-11-16T08:22:59.450Z,1.00
2022-11-16T08:25:44.986Z,1.67
2022-11-16T08:28:31.586Z,0.70
2022-11-16T08:31:21.050Z,0.73
2022-11-16T08:34:06.318Z,1.23
2022-11-16T08:36:51.984Z,1.58
2022-11-16T08:39:37.442Z,0.55
2022-11-16T08:42:22.830Z,1.17
2022-11-16T08:45:08.392Z,1.65
2022-11-16T08:48:03.330Z,0.88
2022-11-16T08:51:15.783Z,0.63
2022-11-16T08:53:58.783Z,1.00
2022-11-16T08:56:44.156Z,0.90
2022-11-16T08:59:29.734Z,0.80
2022-11-16T09:02:15.067Z,0.80
2022-11-16T09:05:00.664Z,1.55
2022-11-16T09:07:46.152Z,1.00
2022-11-16T09:10:31.786Z,1.10
2022-11-16T09:13:17.024Z,1.08
2022-11-16T09:16:03.324Z,1.13
2022-11-16T09:18:50.754Z,1.02
2022-11-16T09:21:37.573Z,0.73
2022-11-16T09:24:22.823Z,0.82
2022-11-16T09:27:08.626Z,0.80
2022-11-16T09:29:53.871Z,1.00
2022-11-16T09:32:39.280Z,1.05
2022-11-16T09:35:25.040Z,1.25
2022-11-16T09:38:12.710Z,0.73
2022-11-16T09:41:10.282Z,1.05
2022-11-16T09:44:17.066Z,0.60
2022-11-16T09:47:02.532Z,0.93
2022-11-16T09:50:01.558Z,0.93
2022-11-16T09:52:50.710Z,0.88
2022-11-16T09:55:56.984Z,0.90
2022-11-16T09:58:54.397Z,1.40
2022-11-16T10:02:16.049Z,0.73
2022-11-16T10:05:42.840Z,1.23
2022-11-16T10:08:46.777Z,0.68
2022-11-16T10:11:57.860Z,1.40
2022-11-16T10:15:11.706Z,0.68
2022-11-16T10:18:02.545Z,0.70
2022-11-16T10:21:58.279Z,0.70
2022-11-16T10:25:07.156Z,1.27
2022-11-16T10:28:04.355Z,0.82
2022-11-16T10:31:37.891Z,0.82
2022-11-16T10:34:27.965Z,0.90
2022-11-16T10:37:14.057Z,0.90
2022-11-16T10:39:59.343Z,1.23
2022-11-16T10:42:49.284Z,1.00
2022-11-16T10:45:57.975Z,1.00
2022-11-16T10:49:01.034Z,1.40
2022-11-16T10:51:46.647Z,1.63
2022-11-16T10:54:32.718Z,1.13
2022-11-16T10:57:18.370Z,0.98
2022-11-16T11:00:04.092Z,1.10
2022-11-16T11:02:49.776Z,1.00
2022-11-16T11:05:36.643Z,1.35
2022-11-16T11:08:30.711Z,0.95
2022-11-16T11:11:41.232Z,1.02
2022-11-16T11:14:26.725Z,1.10
2022-11-16T11:17:17.566Z,1.23
2022-11-16T11:20:08.011Z,0.80
2022-11-16T11:23:03.502Z,1.02
2022-11-16T11:25:54.168Z,1.50
2022-11-16T11:28:48.289Z,1.02
2022-11-16T11:31:41.946Z,0.70
2022-11-16T11:34:30.224Z,0.85
2022-11-16T11:37:19.855Z,1.30
2022-11-16T11:40:17.470Z,0.85
2022-11-16T11:43:05.923Z,0.93
2022-11-16T11:45:58.087Z,1.00
2022-11-16T11:48:51.521Z,0.90
2022-11-16T11:51:42.762Z,1.00
2022-11-16T11:54:35.694Z,0.85
2022-11-16T11:57:23.381Z,1.42
2022-11-16T12:00:12.935Z,0.80
2022-11-16T12:02:58.671Z,1.08
2022-11-16T12:06:08.040Z,1.08
2022-11-16T12:09:17.998Z,0.82
2022-11-16T12:12:21.434Z,1.00
2022-11-16T12:15:37.699Z,1.10
2022-11-16T12:18:27.770Z,0.88
2022-11-16T12:21:34.561Z,1.10
2022-11-16T12:24:36.902Z,1.90
2022-11-16T12:27:48.120Z,1.10
2022-11-16T12:30:40.622Z,1.00
2022-11-16T12:33:40.162Z,1.00
2022-11-16T12:36:44.048Z,1.52
2022-11-16T12:39:34.634Z,1.10
2022-11-16T12:43:00.214Z,1.10
2022-11-16T12:45:57.465Z,2.25
2022-11-16T12:49:02.072Z,1.70
2022-11-16T12:52:12.385Z,2.08
2022-11-16T12:55:26.674Z,1.42
2022-11-16T12:58:34.365Z,1.80
2022-11-16T13:01:45.563Z,1.75
2022-11-16T13:04:57.583Z,1.90
2022-11-16T13:07:44.703Z,3.22
2022-11-16T13:10:35.798Z,1.42
2022-11-16T13:13:38.339Z,2.20
2022-11-16T13:16:24.708Z,1.98
2022-11-16T13:19:14.098Z,1.77
2022-11-16T13:22:03.650Z,1.85
2022-11-16T13:25:00.093Z,1.90
2022-11-16T13:27:49.476Z,2.13
2022-11-16T13:30:56.440Z,1.63
2022-11-16T13:33:55.381Z,1.90
2022-11-16T13:36:46.511Z,1.60
2022-11-16T13:39:51.054Z,1.48
2022-11-16T13:42:57.922Z,1.30
2022-11-16T13:45:49.478Z,1.55
2022-11-16T13:48:38.412Z,1.58
2022-11-16T13:51:24.736Z,1.83
2022-11-16T13:57:29.896Z,2.17
2022-11-16T14:00:35.336Z,2.08
2022-11-16T14:03:20.471Z,1.98
2022-11-16T14:06:28.871Z,1.42
2022-11-16T14:09:46.514Z,1.92
2022-11-16T14:12:38.153Z,1.95
2022-11-16T14:15:31.945Z,2.45
2022-11-16T14:18:17.527Z,1.52
2022-11-16T14:21:11.077Z,1.30
2022-11-16T14:23:59.393Z,1.63
2022-11-16T14:27:16.187Z,1.60
2022-11-16T14:30:25.880Z,1.42
2022-11-16T14:33:16.420Z,2.33
2022-11-16T14:36:04.520Z,2.00
2022-11-16T14:38:50.909Z,1.85
2022-11-16T14:41:36.460Z,2.40
2022-11-16T14:44:25.600Z,2.30
2022-11-16T14:47:26.836Z,2.22
2022-11-16T14:50:21.874Z,2.55
2022-11-16T14:53:09.320Z,3.03
2022-11-16T14:56:12.293Z,3.78
2022-11-16T14:59:02.248Z,3.37
2022-11-16T15:01:47.826Z,2.30
2022-11-16T15:04:33.528Z,2.53
2022-11-16T15:07:22.668Z,2.90
2022-11-16T15:10:22.579Z,2.13
2022-11-16T15:13:08.287Z,2.20
2022-11-16T15:16:30.566Z,2.60
2022-11-16T15:19:16.332Z,2.80
2022-11-16T15:22:04.236Z,2.40
2022-11-16T15:24:58.607Z,2.90
2022-11-16T15:27:44.338Z,2.42
2022-11-16T15:30:37.255Z,3.97
2022-11-16T15:33:29.898Z,2.50
2022-11-16T15:36:33.505Z,3.33
2022-11-16T15:39:23.404Z,3.03
2022-11-16T15:42:15.028Z,3.10
2022-11-16T15:45:04.240Z,3.80
2022-11-16T15:47:53.837Z,4.60
2022-11-16T15:50:39.265Z,4.75
2022-11-16T15:53:47.334Z,4.90
2022-11-16T15:56:33.462Z,4.53
2022-11-16T15:59:27.110Z,3.88
2022-11-16T16:02:28.485Z,4.38
2022-11-16T16:05:32.486Z,4.15
2022-11-16T16:08:37.479Z,3.03
2022-11-16T16:11:26.766Z,3.33
2022-11-16T16:14:30.562Z,2.70
2022-11-16T16:17:27.139Z,3.45
2022-11-16T16:20:19.413Z,3.38
2022-11-16T16:23:07.729Z,4.15
2022-11-16T16:25:53.098Z,3.42
2022-11-16T16:28:38.608Z,4.22
2022-11-16T16:31:24.139Z,4.20
2022-11-16T16:34:12.613Z,4.68
2022-11-16T16:36:58.190Z,3.85
2022-11-16T16:39:43.887Z,4.30
2022-11-16T16:42:29.416Z,4.32
2022-11-16T16:45:30.847Z,6.47
2022-11-16T16:48:16.834Z,4.68
2022-11-16T16:51:02.376Z,4.93
2022-11-16T16:53:47.796Z,4.93
2022-11-16T16:56:32.964Z,4.53
2022-11-16T16:59:18.671Z,5.32
2022-11-16T17:02:04.465Z,4.68
2022-11-16T17:04:49.771Z,4.40
2022-11-16T17:07:35.114Z,5.28
2022-11-16T17:10:20.499Z,5.05
2022-11-16T17:13:06.077Z,4.95
2022-11-16T17:15:51.414Z,5.15
2022-11-16T17:18:36.852Z,5.45
2022-11-16T17:21:22.706Z,5.07
2022-11-16T17:24:07.952Z,3.92
2022-11-16T17:26:53.569Z,5.57
2022-11-16T17:29:39.174Z,4.78
2022-11-16T17:32:24.544Z,4.40
2022-11-16T17:35:10.537Z,4.63
2022-11-16T17:37:55.964Z,4.45
2022-11-16T17:40:41.357Z,3.75
2022-11-16T17:43:26.825Z,4.90
2022-11-16T17:46:18.185Z,4.65
2022-11-16T17:49:03.460Z,4.03
2022-11-16T17:51:48.761Z,4.68
2022-11-16T17:54:34.617Z,4.95
2022-11-16T17:57:20.474Z,3.63
2022-11-16T18:00:07.502Z,4.05
2022-11-16T18:02:53.093Z,3.17
2022-11-16T18:05:38.565Z,3.15
2022-11-16T18:08:24.561Z,3.15
2022-11-16T18:11:18.155Z,3.03
2022-11-16T18:14:05.709Z,2.65
2022-11-16T18:16:53.695Z,3.22
2022-11-16T18:19:39.178Z,3.47
2022-11-16T18:22:24.777Z,2.80
2022-11-16T18:25:10.931Z,2.55
2022-11-16T18:27:56.808Z,3.25
2022-11-16T18:30:42.318Z,3.28
2022-11-16T18:33:30.749Z,4.07
2022-11-16T18:36:17.383Z,3.10
2022-11-16T18:39:03.025Z,2.58
2022-11-16T18:41:54.842Z,2.72
2022-11-16T18:44:40.753Z,2.22
2022-11-16T18:47:26.299Z,3.20
2022-11-16T18:50:18.958Z,2.55
2022-11-16T18:53:06.887Z,2.63
2022-11-16T18:55:57.633Z,2.38
2022-11-16T18:58:50.413Z,2.55
2022-11-16T19:01:37.335Z,1.98
2022-11-16T19:04:24.247Z,2.40
2022-11-16T19:07:10.936Z,2.42
2022-11-16T19:09:56.677Z,2.13
2022-11-16T19:12:42.064Z,2.72
2022-11-16T19:15:27.677Z,1.63
2022-11-16T19:18:21.027Z,2.05
2022-11-16T19:21:12.440Z,2.15
2022-11-16T19:23:58.175Z,1.50
2022-11-16T19:26:43.643Z,1.50
2022-11-16T19:29:29.040Z,1.33
2022-11-16T19:32:15.188Z,2.05
2022-11-16T19:35:02.726Z,1.67
2022-11-16T19:37:48.578Z,2.05
2022-11-16T19:40:35.359Z,1.98
2022-11-16T19:43:21.775Z,1.80
2022-11-16T19:46:13.341Z,2.10
2022-11-16T19:48:59.317Z,1.95
2022-11-16T19:51:44.933Z,1.70
2022-11-16T19:54:30.744Z,2.10
2022-11-16T19:57:20.416Z,1.88
2022-11-16T20:00:06.333Z,1.85
2022-11-16T20:02:57.149Z,2.40
2022-11-16T20:05:42.448Z,3.25
2022-11-16T20:08:28.356Z,2.25
2022-11-16T20:11:20.370Z,1.77
2022-11-16T20:14:08.356Z,1.40
2022-11-16T20:16:53.978Z,1.65
2022-11-16T20:19:39.321Z,2.22
2022-11-16T20:22:24.842Z,2.00
2022-11-16T20:25:11.152Z,1.75
2022-11-16T20:27:56.357Z,2.10
2022-11-16T20:30:48.701Z,1.70
2022-11-16T20:33:34.898Z,1.80
2022-11-16T20:36:22.921Z,1.70
2022-11-16T20:39:16.584Z,1.73
2022-11-16T20:44:47.226Z,1.83
2022-11-16T20:47:32.818Z,1.60
2022-11-16T20:50:19.627Z,1.70
2022-11-16T20:53:05.243Z,1.65
2022-11-16T20:55:50.733Z,1.40
2022-11-16T20:58:36.119Z,0.70
2022-11-16T21:05:46.372Z,0.75
2022-11-16T21:08:33.722Z,0.93
2022-11-16T21:11:26.320Z,0.60
2022-11-16T21:14:19.623Z,0.90
2022-11-16T21:17:05.559Z,0.95
2022-11-16T21:20:20.043Z,1.20
2022-11-16T21:22:57.373Z,1.75
2022-11-16T21:25:43.394Z,2.15
2022-11-16T21:28:30.092Z,1.52
2022-11-16T21:31:22.292Z,1.42
2022-11-16T21:34:07.843Z,2.53
2022-11-16T21:36:53.815Z,1.67
2022-11-16T21:39:39.494Z,2.05
2022-11-16T21:42:25.147Z,2.35
2022-11-16T21:45:20.150Z,2.58
2022-11-16T21:48:08.241Z,4.00
2022-11-16T21:51:04.266Z,4.15
2022-11-16T21:53:51.199Z,3.28
2022-11-16T21:56:37.727Z,4.32
2022-11-16T21:59:23.428Z,3.40
2022-11-16T22:02:12.175Z,4.65
2022-11-16T22:05:16.150Z,3.53
2022-11-16T22:08:06.314Z,3.85
2022-11-16T22:10:52.548Z,4.22
2022-11-16T22:13:39.347Z,4.15
2022-11-16T22:16:24.636Z,2.50
2022-11-16T22:19:10.606Z,3.75
2022-11-16T22:21:56.031Z,3.50
2022-11-16T22:24:41.661Z,4.05
2022-11-16T22:27:27.980Z,3.67
2022-11-16T22:30:14.145Z,5.53
2022-11-16T22:33:00.009Z,4.13
2022-11-16T22:35:47.160Z,4.78
2022-11-16T22:38:33.754Z,5.20
2022-11-16T22:41:20.151Z,6.22
2022-11-16T22:44:06.073Z,7.30
2022-11-16T22:46:52.679Z,8.32
2022-11-16T22:49:38.403Z,5.45
2022-11-16T22:52:24.573Z,6.30
2022-11-16T22:55:10.515Z,6.25
2022-11-16T22:57:55.913Z,9.27
2022-11-16T23:00:42.447Z,8.13
2022-11-16T23:03:28.333Z,8.07
2022-11-16T23:06:15.752Z,7.03
2022-11-16T23:09:01.683Z,6.95
2022-11-16T23:12:05.592Z,8.77
2022-11-16T23:15:09.603Z,8.43
2022-11-16T23:17:55.340Z,6.38
2022-11-16T23:20:59.434Z,7.50
2022-11-16T23:24:03.433Z,8.82
2022-11-16T23:27:07.879Z,7.70
2022-11-16T23:29:53.548Z,8.10
2022-11-16T23:32:38.969Z,9.55
2022-11-16T23:35:24.619Z,6.93
2022-11-16T23:38:10.392Z,6.75
2022-11-16T23:40:55.569Z,8.02
2022-11-16T23:43:59.088Z,6.40
2022-11-16T23:46:44.937Z,4.93
2022-11-16T23:49:30.204Z,5.40
2022-11-16T23:52:15.817Z,5.80
2022-11-16T23:55:01.359Z,4.63
2022-11-16T23:57:46.883Z,5.35
